createdAt,value
2022-09-16T00:02:27.074Z,1.90
2022-09-16T00:05:00.355Z,1.85
2022-09-16T00:07:35.152Z,1.80
2022-09-16T00:10:09.260Z,1.85
2022-09-16T00:12:44.211Z,2.13
2022-09-16T00:15:19.643Z,2.08
2022-09-16T00:17:52.521Z,1.95
2022-09-16T00:20:25.544Z,1.90
2022-09-16T00:22:58.385Z,2.30
2022-09-16T00:25:31.883Z,2.15
2022-09-16T00:28:05.267Z,2.08
2022-09-16T00:30:42.497Z,1.80
2022-09-16T00:33:16.973Z,2.35
2022-09-16T00:35:51.495Z,2.00
2022-09-16T00:38:27.043Z,1.88
2022-09-16T00:40:59.846Z,1.90
2022-09-16T00:43:48.669Z,1.90
2022-09-16T00:46:29.448Z,1.73
2022-09-16T00:49:06.124Z,1.95
2022-09-16T00:51:41.990Z,2.00
2022-09-16T00:54:20.429Z,1.90
2022-09-16T00:56:57.238Z,2.25
2022-09-16T00:59:35.149Z,2.13
2022-09-16T01:02:12.905Z,2.00
2022-09-16T01:04:55.868Z,1.95
2022-09-16T01:07:35.242Z,2.10
2022-09-16T01:10:10.822Z,2.30
2022-09-16T01:12:47.247Z,2.00
2022-09-16T01:15:26.574Z,2.15
2022-09-16T01:18:14.232Z,2.33
2022-09-16T01:21:21.952Z,2.20
2022-09-16T01:24:16.767Z,2.35
2022-09-16T01:27:20.250Z,2.40
2022-09-16T01:30:18.284Z,2.50
2022-09-16T01:33:05.077Z,2.28
2022-09-16T01:36:03.074Z,2.47
2022-09-16T01:38:50.031Z,2.80
2022-09-16T01:41:34.376Z,3.22
2022-09-16T01:44:18.706Z,3.13
2022-09-16T01:47:02.087Z,3.03
2022-09-16T01:49:45.106Z,2.83
2022-09-16T01:52:27.507Z,2.85
2022-09-16T01:55:03.781Z,3.30
2022-09-16T01:57:43.237Z,3.03
2022-09-16T02:00:18.576Z,2.95
2022-09-16T02:02:57.636Z,3.20
2022-09-16T02:05:35.945Z,3.40
2022-09-16T02:08:18.006Z,3.30
2022-09-16T02:10:56.691Z,3.05
2022-09-16T02:13:36.155Z,2.90
2022-09-16T02:16:15.482Z,3.00
2022-09-16T02:18:54.484Z,3.08
2022-09-16T02:21:34.731Z,3.00
2022-09-16T02:24:15.797Z,2.67
2022-09-16T02:26:53.492Z,3.05
2022-09-16T02:29:33.990Z,3.22
2022-09-16T02:32:12.426Z,2.92
2022-09-16T02:34:48.853Z,2.90
2022-09-16T02:37:30.990Z,2.85
2022-09-16T02:40:11.779Z,3.22
2022-09-16T02:42:47.385Z,2.90
2022-09-16T02:45:30.492Z,2.70
2022-09-16T02:48:08.657Z,3.15
2022-09-16T02:50:49.672Z,2.85
2022-09-16T02:53:36.899Z,3.03
2022-09-16T02:56:16.019Z,2.88
2022-09-16T02:58:51.883Z,2.92
2022-09-16T03:01:25.982Z,3.03
2022-09-16T03:04:01.629Z,3.30
2022-09-16T03:06:36.793Z,2.80
2022-09-16T03:09:17.887Z,2.97
2022-09-16T03:12:23.737Z,2.97
2022-09-16T03:15:45.727Z,3.05
2022-09-16T03:18:43.711Z,3.20
2022-09-16T03:21:22.762Z,2.65
2022-09-16T03:24:10.607Z,2.70
2022-09-16T03:26:51.925Z,2.88
2022-09-16T03:29:32.143Z,2.90
2022-09-16T03:32:15.871Z,3.10
2022-09-16T03:34:54.305Z,2.72
2022-09-16T03:37:32.139Z,3.00
2022-09-16T03:40:11.036Z,3.25
2022-09-16T03:42:47.527Z,3.20
2022-09-16T03:45:23.735Z,2.78
2022-09-16T03:47:58.887Z,2.70
2022-09-16T03:50:32.441Z,2.75
2022-09-16T03:53:05.552Z,2.63
2022-09-16T03:55:43.008Z,3.45
2022-09-16T03:58:23.180Z,3.03
2022-09-16T04:01:01.320Z,3.33
2022-09-16T04:03:37.734Z,3.22
2022-09-16T04:06:11.554Z,3.13
2022-09-16T04:08:45.585Z,3.20
2022-09-16T04:11:20.015Z,3.15
2022-09-16T04:13:54.949Z,3.28
2022-09-16T04:16:29.302Z,3.10
2022-09-16T04:19:03.486Z,2.80
2022-09-16T04:21:36.816Z,2.95
2022-09-16T04:24:13.311Z,3.00
2022-09-16T04:26:46.803Z,2.63
2022-09-16T04:29:22.330Z,2.97
2022-09-16T04:31:59.874Z,2.70
2022-09-16T04:34:38.213Z,2.70
2022-09-16T04:37:11.910Z,3.13
2022-09-16T04:39:47.361Z,2.78
2022-09-16T04:42:22.183Z,2.80
2022-09-16T04:44:57.873Z,2.75
2022-09-16T04:47:32.167Z,2.63
2022-09-16T04:50:09.589Z,2.72
2022-09-16T04:52:42.949Z,2.50
2022-09-16T04:55:19.205Z,2.58
2022-09-16T04:57:52.612Z,2.95
2022-09-16T05:00:30.479Z,2.65
2022-09-16T05:03:04.142Z,3.00
2022-09-16T05:05:37.214Z,2.95
2022-09-16T05:08:10.334Z,2.83
2022-09-16T05:10:44.530Z,3.20
2022-09-16T05:13:17.952Z,3.00
2022-09-16T05:15:55.751Z,2.75
2022-09-16T05:18:30.136Z,3.15
2022-09-16T05:21:07.012Z,2.67
2022-09-16T05:23:45.873Z,2.72
2022-09-16T05:26:25.413Z,2.60
2022-09-16T05:29:02.434Z,2.67
2022-09-16T05:31:47.462Z,2.78
2022-09-16T05:34:23.532Z,2.80
2022-09-16T05:36:57.458Z,2.92
2022-09-16T05:39:32.703Z,2.80
2022-09-16T05:42:06.168Z,2.95
2022-09-16T05:44:40.049Z,2.67
2022-09-16T05:47:15.539Z,2.97
2022-09-16T05:49:48.443Z,2.95
2022-09-16T05:52:21.995Z,2.97
2022-09-16T05:54:57.079Z,2.95
2022-09-16T05:57:30.852Z,2.80
2022-09-16T06:00:06.384Z,3.08
2022-09-16T06:02:40.601Z,3.00
2022-09-16T06:05:13.626Z,3.28
2022-09-16T06:07:47.270Z,3.45
2022-09-16T06:10:20.772Z,2.97
2022-09-16T06:12:54.859Z,2.42
2022-09-16T06:15:28.190Z,2.80
2022-09-16T06:18:06.293Z,2.67
2022-09-16T06:20:40.293Z,2.67
2022-09-16T06:23:13.354Z,2.20
2022-09-16T06:25:46.742Z,2.70
2022-09-16T06:28:20.288Z,2.78
2022-09-16T06:31:03.619Z,2.70
2022-09-16T06:33:38.254Z,2.90
2022-09-16T06:36:12.686Z,2.67
2022-09-16T06:38:48.077Z,2.55
2022-09-16T06:41:26.282Z,2.53
2022-09-16T06:43:59.072Z,2.58
2022-09-16T06:46:32.235Z,2.42
2022-09-16T06:49:07.344Z,2.65
2022-09-16T06:51:41.793Z,2.58
2022-09-16T06:54:14.933Z,2.40
2022-09-16T06:56:51.709Z,2.60
2022-09-16T06:59:25.917Z,2.53
2022-09-16T07:01:59.523Z,2.92
2022-09-16T07:04:37.026Z,2.47
2022-09-16T07:07:11.156Z,2.95
2022-09-16T07:09:44.577Z,2.92
2022-09-16T07:12:19.788Z,2.90
2022-09-16T07:14:54.663Z,2.97
2022-09-16T07:17:28.646Z,3.55
2022-09-16T07:20:03.847Z,3.33
2022-09-16T07:22:38.427Z,3.50
2022-09-16T07:25:13.356Z,3.47
2022-09-16T07:27:47.151Z,3.08
2022-09-16T07:30:20.429Z,3.17
2022-09-16T07:32:53.620Z,3.35
2022-09-16T07:35:28.053Z,2.97
2022-09-16T07:38:02.252Z,3.15
2022-09-16T07:40:35.796Z,3.47
2022-09-16T07:43:08.781Z,3.17
2022-09-16T07:45:41.975Z,3.33
2022-09-16T07:48:15.037Z,3.22
2022-09-16T07:50:59.528Z,3.58
2022-09-16T07:53:36.257Z,3.40
2022-09-16T07:56:13.110Z,3.47
2022-09-16T07:58:47.558Z,3.47
2022-09-16T08:01:20.413Z,3.67
2022-09-16T08:03:54.392Z,3.67
2022-09-16T08:06:31.488Z,3.40
2022-09-16T08:09:10.495Z,3.20
2022-09-16T08:11:57.268Z,3.15
2022-09-16T08:14:31.440Z,3.00
2022-09-16T08:17:04.435Z,3.45
2022-09-16T08:19:38.526Z,3.25
2022-09-16T08:22:12.802Z,3.15
2022-09-16T08:24:45.726Z,3.33
2022-09-16T08:27:18.750Z,3.45
2022-09-16T08:29:54.770Z,3.30
2022-09-16T08:32:27.665Z,2.95
2022-09-16T08:35:00.646Z,2.60
2022-09-16T08:37:36.051Z,3.10
2022-09-16T08:40:09.642Z,2.70
2022-09-16T08:42:57.640Z,3.00
2022-09-16T08:45:43.640Z,3.10
2022-09-16T08:48:28.819Z,3.25
2022-09-16T08:51:03.340Z,2.75
2022-09-16T08:53:43.503Z,2.95
2022-09-16T08:56:20.711Z,3.03
2022-09-16T08:58:56.428Z,3.00
2022-09-16T09:01:36.104Z,2.88
2022-09-16T09:04:09.393Z,3.40
2022-09-16T09:07:01.049Z,3.05
2022-09-16T09:09:48.648Z,3.05
2022-09-16T09:12:28.926Z,2.90
2022-09-16T09:15:14.833Z,2.70
2022-09-16T09:18:01.983Z,2.90
2022-09-16T09:20:46.752Z,2.85
2022-09-16T09:23:36.394Z,3.33
2022-09-16T09:26:16.226Z,2.85
2022-09-16T09:29:05.297Z,3.10
2022-09-16T09:31:49.382Z,2.80
2022-09-16T09:34:41.032Z,2.92
2022-09-16T09:37:30.666Z,2.83
2022-09-16T09:40:11.192Z,2.80
2022-09-16T09:42:51.445Z,2.30
2022-09-16T09:45:29.936Z,2.90
2022-09-16T09:48:10.475Z,2.33
2022-09-16T09:50:46.221Z,3.08
2022-09-16T09:53:25.465Z,2.70
2022-09-16T09:56:02.639Z,2.67
2022-09-16T09:58:43.080Z,2.80
2022-09-16T10:01:16.255Z,2.70
2022-09-16T10:03:50.116Z,2.90
2022-09-16T10:06:27.827Z,2.75
2022-09-16T10:09:01.039Z,2.55
2022-09-16T10:11:34.355Z,3.08
2022-09-16T10:14:25.039Z,2.70
2022-09-16T10:17:02.098Z,2.90
2022-09-16T10:19:40.323Z,2.70
2022-09-16T10:22:22.817Z,2.38
2022-09-16T10:24:58.058Z,3.03
2022-09-16T10:27:36.149Z,3.10
2022-09-16T10:30:15.548Z,2.90
2022-09-16T10:32:52.443Z,3.03
2022-09-16T10:35:28.214Z,3.10
2022-09-16T10:38:05.474Z,3.10
2022-09-16T10:40:38.723Z,3.08
2022-09-16T10:43:17.105Z,3.10
2022-09-16T10:45:54.505Z,2.83
2022-09-16T10:48:29.911Z,3.22
2022-09-16T10:51:06.676Z,3.22
2022-09-16T10:53:46.172Z,2.97
2022-09-16T10:56:22.354Z,2.97
2022-09-16T10:59:06.684Z,3.40
2022-09-16T11:01:49.262Z,3.40
2022-09-16T11:04:37.292Z,3.28
2022-09-16T11:07:21.976Z,4.20
2022-09-16T11:10:02.813Z,3.92
2022-09-16T11:13:08.300Z,4.03
2022-09-16T11:15:55.287Z,3.65
2022-09-16T11:18:44.144Z,3.13
2022-09-16T11:21:30.429Z,3.40
2022-09-16T11:24:34.185Z,3.20
2022-09-16T11:27:16.140Z,2.90
2022-09-16T11:30:09.669Z,3.53
2022-09-16T11:32:58.808Z,3.55
2022-09-16T11:36:08.256Z,3.70
2022-09-16T11:38:55.427Z,3.35
2022-09-16T11:41:34.073Z,3.40
2022-09-16T11:44:33.215Z,3.20
2022-09-16T11:47:27.627Z,3.13
2022-09-16T11:50:19.772Z,3.25
2022-09-16T11:53:12.516Z,2.88
2022-09-16T11:55:53.350Z,3.50
2022-09-16T11:58:34.399Z,3.17
2022-09-16T12:03:55.910Z,3.50
2022-09-16T12:06:36.032Z,3.15
2022-09-16T12:09:15.329Z,3.42
2022-09-16T12:11:52.977Z,3.17
2022-09-16T12:14:32.537Z,3.40
2022-09-16T12:17:10.434Z,3.63
2022-09-16T12:19:48.968Z,3.08
2022-09-16T12:22:24.537Z,2.92
2022-09-16T12:25:08.462Z,3.53
2022-09-16T12:27:49.180Z,3.05
2022-09-16T12:30:25.389Z,3.05
2022-09-16T12:33:31.609Z,2.92
2022-09-16T12:36:08.322Z,2.80
2022-09-16T12:38:41.400Z,2.70
2022-09-16T12:41:42.195Z,2.90
2022-09-16T12:44:41.013Z,2.38
2022-09-16T12:47:36.337Z,2.55
2022-09-16T12:51:05.095Z,2.45
2022-09-16T12:54:14.780Z,2.10
2022-09-16T12:57:06.030Z,2.38
2022-09-16T13:00:01.952Z,1.98
2022-09-16T13:02:39.705Z,1.70
2022-09-16T13:05:17.511Z,1.67
2022-09-16T13:07:54.056Z,2.00
2022-09-16T13:10:54.093Z,1.45
2022-09-16T13:13:33.198Z,1.50
2022-09-16T13:16:08.514Z,1.40
2022-09-16T13:18:44.813Z,1.27
2022-09-16T13:21:25.726Z,1.30
2022-09-16T13:24:05.149Z,1.33
2022-09-16T13:26:42.634Z,1.20
2022-09-16T13:29:31.137Z,1.60
2022-09-16T13:32:04.124Z,1.50
2022-09-16T13:34:37.011Z,1.50
2022-09-16T13:37:16.519Z,1.50
2022-09-16T13:39:50.491Z,1.45
2022-09-16T13:42:25.035Z,1.48
2022-09-16T13:44:59.184Z,1.50
2022-09-16T13:47:40.233Z,1.58
2022-09-16T13:50:16.134Z,1.58
2022-09-16T13:52:50.908Z,1.70
2022-09-16T13:55:26.549Z,1.80
2022-09-16T13:58:03.937Z,1.40
2022-09-16T14:00:45.482Z,1.40
2022-09-16T14:03:42.531Z,1.50
2022-09-16T14:06:34.165Z,1.52
2022-09-16T14:09:28.943Z,1.50
2022-09-16T14:12:13.553Z,1.50
2022-09-16T14:14:47.803Z,1.45
2022-09-16T14:17:25.433Z,1.40
2022-09-16T14:20:02.134Z,1.63
2022-09-16T14:22:34.977Z,1.70
2022-09-16T14:25:30.006Z,1.80
2022-09-16T14:28:19.071Z,1.60
2022-09-16T14:30:55.526Z,1.70
2022-09-16T14:33:33.894Z,1.90
2022-09-16T14:36:11.934Z,1.83
2022-09-16T14:38:48.535Z,1.77
2022-09-16T14:41:27.542Z,1.95
2022-09-16T14:44:10.079Z,1.80
2022-09-16T14:46:45.436Z,1.90
2022-09-16T14:49:20.400Z,1.63
2022-09-16T14:51:59.884Z,1.80
2022-09-16T14:54:33.600Z,2.10
2022-09-16T14:57:08.737Z,1.50
2022-09-16T14:59:42.963Z,1.65
2022-09-16T15:02:19.859Z,1.50
2022-09-16T15:04:58.128Z,1.40
2022-09-16T15:07:34.619Z,1.17
2022-09-16T15:10:10.454Z,1.40
2022-09-16T15:12:49.430Z,1.50
2022-09-16T15:15:25.912Z,1.20
2022-09-16T15:18:02.259Z,1.40
2022-09-16T15:20:38.808Z,1.10
2022-09-16T15:23:22.222Z,1.23
2022-09-16T15:25:58.151Z,1.40
2022-09-16T15:28:31.169Z,1.20
2022-09-16T15:31:04.201Z,1.05
2022-09-16T15:33:42.298Z,1.20
2022-09-16T15:36:34.890Z,1.30
2022-09-16T15:39:24.267Z,1.20
2022-09-16T15:42:13.201Z,1.30
2022-09-16T15:44:51.496Z,1.33
2022-09-16T15:47:27.733Z,1.60
2022-09-16T15:50:04.367Z,1.30
2022-09-16T15:52:57.355Z,1.48
2022-09-16T15:55:36.590Z,1.30
2022-09-16T15:58:14.821Z,1.42
2022-09-16T16:01:06.939Z,2.10
2022-09-16T16:03:54.810Z,1.90
2022-09-16T16:06:46.897Z,1.67
2022-09-16T16:09:48.953Z,1.42
2022-09-16T16:14:54.627Z,1.45
2022-09-16T16:17:27.595Z,1.38
2022-09-16T16:20:00.820Z,1.58
2022-09-16T16:22:34.781Z,1.48
2022-09-16T16:25:09.996Z,2.17
2022-09-16T16:27:42.874Z,1.88
2022-09-16T16:30:15.799Z,1.48
2022-09-16T16:32:48.835Z,2.33
2022-09-16T16:35:21.597Z,1.67
2022-09-16T16:37:54.633Z,1.52
2022-09-16T16:40:28.919Z,1.80
2022-09-16T16:43:01.955Z,2.00
2022-09-16T16:45:34.775Z,1.63
2022-09-16T16:48:07.745Z,1.80
2022-09-16T16:50:40.928Z,2.00
2022-09-16T16:53:13.832Z,1.70
2022-09-16T16:55:48.142Z,1.75
2022-09-16T16:58:21.366Z,2.08
2022-09-16T17:00:54.300Z,1.65
2022-09-16T17:03:27.386Z,1.58
2022-09-16T17:06:00.297Z,2.13
2022-09-16T17:08:33.478Z,1.60
2022-09-16T17:11:10.101Z,1.73
2022-09-16T17:13:45.879Z,1.48
2022-09-16T17:16:22.485Z,1.65
2022-09-16T17:18:56.257Z,1.40
2022-09-16T17:21:32.701Z,1.40
2022-09-16T17:24:05.979Z,1.23
2022-09-16T17:26:40.885Z,1.33
2022-09-16T17:29:16.075Z,1.30
2022-09-16T17:31:49.485Z,1.63
2022-09-16T17:34:23.079Z,1.50
2022-09-16T17:36:57.493Z,1.20
2022-09-16T17:39:30.605Z,1.30
2022-09-16T17:42:05.464Z,1.23
2022-09-16T17:44:38.655Z,1.23
2022-09-16T17:47:12.093Z,1.35
2022-09-16T17:49:44.972Z,1.30
2022-09-16T17:52:17.864Z,1.45
2022-09-16T17:54:50.746Z,1.35
2022-09-16T17:57:28.909Z,1.45
2022-09-16T18:00:05.234Z,1.52
2022-09-16T18:02:39.107Z,1.60
2022-09-16T18:05:12.413Z,1.35
2022-09-16T18:07:46.764Z,1.90
2022-09-16T18:10:19.680Z,1.63
2022-09-16T18:12:54.090Z,1.52
2022-09-16T18:15:26.991Z,1.38
2022-09-16T18:17:59.789Z,1.20
2022-09-16T18:20:34.610Z,1.70
2022-09-16T18:23:07.507Z,1.60
2022-09-16T18:25:40.282Z,1.48
2022-09-16T18:28:16.038Z,1.40
2022-09-16T18:30:49.617Z,1.40
2022-09-16T18:33:22.506Z,1.35
2022-09-16T18:35:59.499Z,1.50
2022-09-16T18:38:33.491Z,1.17
2022-09-16T18:41:08.709Z,1.75
2022-09-16T18:43:45.117Z,1.70
2022-09-16T18:46:24.143Z,1.40
2022-09-16T18:49:00.255Z,1.73
2022-09-16T18:51:35.083Z,1.45
2022-09-16T18:54:11.734Z,1.92
2022-09-16T18:56:46.690Z,1.80
2022-09-16T18:59:24.210Z,2.08
2022-09-16T19:01:59.182Z,1.55
2022-09-16T19:04:34.128Z,1.40
2022-09-16T19:07:08.682Z,1.70
2022-09-16T19:09:41.902Z,1.50
2022-09-16T19:12:15.157Z,1.60
2022-09-16T19:14:49.679Z,1.70
2022-09-16T19:17:23.261Z,2.40
2022-09-16T19:19:57.136Z,1.40
2022-09-16T19:22:30.729Z,1.88
2022-09-16T19:25:03.558Z,1.90
2022-09-16T19:27:37.303Z,1.48
2022-09-16T19:30:12.741Z,1.63
2022-09-16T19:32:49.129Z,1.48
2022-09-16T19:35:28.130Z,1.70
2022-09-16T19:38:02.627Z,2.05
2022-09-16T19:40:35.823Z,1.85
2022-09-16T19:43:09.276Z,2.33
2022-09-16T19:45:51.061Z,2.75
2022-09-16T19:50:57.366Z,2.03
2022-09-16T19:53:30.289Z,2.30
2022-09-16T19:56:05.190Z,2.20
2022-09-16T19:58:41.123Z,2.38
2022-09-16T20:01:18.010Z,2.28
2022-09-16T20:03:51.370Z,2.08
2022-09-16T20:06:25.719Z,2.35
2022-09-16T20:09:00.412Z,2.20
2022-09-16T20:11:35.908Z,2.03
2022-09-16T20:14:12.667Z,2.30
2022-09-16T20:16:47.643Z,1.90
2022-09-16T20:19:21.234Z,1.92
2022-09-16T20:21:54.777Z,2.15
2022-09-16T20:24:27.611Z,2.00
2022-09-16T20:27:02.173Z,2.05
2022-09-16T20:29:35.225Z,2.08
2022-09-16T20:32:11.904Z,1.90
2022-09-16T20:34:44.826Z,2.58
2022-09-16T20:37:17.945Z,2.10
2022-09-16T20:39:50.912Z,1.92
2022-09-16T20:42:23.798Z,1.90
2022-09-16T20:44:57.147Z,1.60
2022-09-16T20:47:31.439Z,2.42
2022-09-16T20:50:04.610Z,1.95
2022-09-16T20:52:37.517Z,1.98
2022-09-16T20:55:10.711Z,2.03
2022-09-16T20:57:43.517Z,2.10
2022-09-16T21:00:17.341Z,1.90
2022-09-16T21:02:54.012Z,2.30
2022-09-16T21:05:26.834Z,2.38
2022-09-16T21:07:59.640Z,1.95
2022-09-16T21:10:33.198Z,2.25
2022-09-16T21:13:06.614Z,1.95
2022-09-16T21:15:39.451Z,2.83
2022-09-16T21:18:13.977Z,1.58
2022-09-16T21:20:46.894Z,1.70
2022-09-16T21:23:19.786Z,2.00
2022-09-16T21:25:52.649Z,1.70
2022-09-16T21:28:25.491Z,1.98
2022-09-16T21:31:02.701Z,1.60
2022-09-16T21:33:38.152Z,1.70
2022-09-16T21:36:14.932Z,1.73
2022-09-16T21:38:48.368Z,1.98
2022-09-16T21:41:22.848Z,1.52
2022-09-16T21:43:57.185Z,1.50
2022-09-16T21:46:32.578Z,1.60
2022-09-16T21:49:06.854Z,1.50
2022-09-16T21:51:39.880Z,1.77
2022-09-16T21:54:16.588Z,1.58
2022-09-16T21:56:52.739Z,1.60
2022-09-16T21:59:25.570Z,2.03
2022-09-16T22:02:03.435Z,1.95
2022-09-16T22:04:38.413Z,1.77
2022-09-16T22:07:11.567Z,1.45
2022-09-16T22:09:44.362Z,1.77
2022-09-16T22:12:17.659Z,1.90
2022-09-16T22:14:50.432Z,1.85
2022-09-16T22:17:23.661Z,2.30
2022-09-16T22:19:57.937Z,1.88
2022-09-16T22:22:32.462Z,1.90
2022-09-16T22:25:06.414Z,2.00
2022-09-16T22:27:39.314Z,1.98
2022-09-16T22:30:16.480Z,2.15
2022-09-16T22:32:49.624Z,2.03
2022-09-16T22:35:24.208Z,2.20
2022-09-16T22:37:57.046Z,1.92
2022-09-16T22:40:31.044Z,2.20
2022-09-16T22:43:04.227Z,2.13
2022-09-16T22:45:37.566Z,1.80
2022-09-16T22:48:12.654Z,2.38
2022-09-16T22:50:55.980Z,2.08
2022-09-16T22:53:30.690Z,2.50
2022-09-16T22:56:05.778Z,1.92
2022-09-16T22:58:39.038Z,2.15
2022-09-16T23:01:14.349Z,2.00
2022-09-16T23:03:48.156Z,1.98
2022-09-16T23:06:24.539Z,2.17
2022-09-16T23:08:58.064Z,2.00
2022-09-16T23:11:33.366Z,1.85
2022-09-16T23:14:07.535Z,2.25
2022-09-16T23:16:40.300Z,2.17
2022-09-16T23:19:13.462Z,2.45
2022-09-16T23:21:48.102Z,2.10
2022-09-16T23:24:23.521Z,2.28
2022-09-16T23:26:56.342Z,1.90
2022-09-16T23:29:29.345Z,1.60
2022-09-16T23:32:03.412Z,1.98
2022-09-16T23:34:36.476Z,2.05
2022-09-16T23:37:10.765Z,1.90
2022-09-16T23:39:44.240Z,2.05
2022-09-16T23:42:17.250Z,2.10
2022-09-16T23:44:58.526Z,2.08
2022-09-16T23:47:31.689Z,2.05
2022-09-16T23:50:04.953Z,1.83
2022-09-16T23:52:39.549Z,2.15
2022-09-16T23:55:12.631Z,1.90
2022-09-16T23:57:45.411Z,1.52
